Flight Track Log - Related Links

Times and Time Zones

All times are in EDT time to prevent confusion due to time zone crossing. See the TAM3520 flight status page for this flight to view local times or setup timezone preferences in your user account.

Time Position Orientation Groundspeed Altitude Reporting Facility
EDT Latitude Longitude Course Direction KTS MPH feet Rate Location/Type
01:23AM -12.9090 -38.3240 63° Northeast 145 167  Level FlightAware
01:23AM -12.9070 -38.3160 76° East 156 180 300 2,167 Climbing FlightAware
01:23AM -12.9030 -38.2980 77° East 168 193 1,300 2,318 Climbing FlightAware
01:24AM -12.8990 -38.2810 76° East 192 221 2,000 2,368 Climbing FlightAware
01:24AM -12.8960 -38.2630 80° East 215 247 2,800 2,571 Climbing FlightAware
01:24AM -12.8920 -38.2540 65° Northeast 228 262 3,200 2,333 Climbing FlightAware
01:24AM -12.8870 -38.2480 49° Northeast 239 275 3,500 2,500 Climbing FlightAware
01:24AM -12.8830 -38.2440 44° Northeast 249 287 3,700 3,000 Climbing FlightAware
01:25AM -12.8760 -38.2400 29° Northeast 261 300 4,100 3,857 Climbing FlightAware
01:25AM -12.8520 -38.2310 20° North 274 315 5,500 4,000 Climbing FlightAware
01:25AM -12.8240 -38.2210 19° North 290 334 6,900 3,800 Climbing FlightAware
01:25AM -12.8150 -38.2160 28° Northeast 298 343 7,400 3,750 Climbing FlightAware
01:26AM -12.8060 -38.2080 41° Northeast 301 346 7,900 3,857 Climbing FlightAware
01:26AM -12.7850 -38.1890 41° Northeast 305 351 9,200 3,536 Climbing FlightAware
01:26AM -12.7410 -38.1620 31° Northeast 325 374 11,200 3,417 Climbing FlightAware
01:27AM -12.6940 -38.1310 33° Northeast 334 384 13,300 3,529 Climbing FlightAware
01:28AM -12.6520 -38.1040 32° Northeast 334 384 15,200 3,273 Climbing FlightAware
01:28AM -12.6070 -38.0760 31° Northeast 342 394 16,900 2,667 Climbing FlightAware
01:29AM -12.5510 -38.0460 28° Northeast 356 410 18,400 1,703 Climbing FlightAware
01:29AM -12.4960 -38.0180 26° Northeast 388 447 19,000 529 Climbing FlightAware
01:30AM -12.4410 -37.9900 26° Northeast 425 489 19,000  Level FlightAware
01:31AM -12.3810 -37.9600 26° Northeast 430 495 19,000  Level FlightAware
01:31AM -12.3140 -37.9250 27° Northeast 430 495 19,000  Level FlightAware
01:32AM -12.2550 -37.8950 26° Northeast 428 493 19,000  Level FlightAware
01:32AM -12.1930 -37.8630 27° Northeast 428 493 19,000  Level FlightAware
01:33AM -12.1270 -37.8290 27° Northeast 427 491 19,000 -333 Level FlightAware
01:33AM -12.0640 -37.7970 26° Northeast 428 493 18,600 -882 Descending FlightAware
01:34AM -12.0090 -37.7680 27° Northeast 427 491 18,000 -1,059 Descending FlightAware
01:35AM -11.9440 -37.7350 26° Northeast 429 494 17,400 -943 Descending FlightAware
01:35AM -11.8830 -37.7030 27° Northeast 428 493 16,900 -986 Descending FlightAware
01:36AM -11.8160 -37.6690 26° Northeast 425 489 16,200 -1,114 Descending FlightAware
01:36AM -11.7600 -37.6410 26° Northeast 425 489 15,600 -1,652 Descending FlightAware
01:37AM -11.6960 -37.6080 27° Northeast 399 459 14,300 -2,189 Descending FlightAware
01:38AM -11.6370 -37.5770 27° Northeast 382 440 12,900 -2,559 Descending FlightAware
01:38AM -11.5880 -37.5520 27° Northeast 376 433 11,400 -2,229 Descending FlightAware
01:39AM -11.5280 -37.5220 26° Northeast 355 409 10,300 -971 Descending FlightAware
01:39AM -11.4920 -37.5030 27° Northeast 310 357 10,300 -808 Level FlightAware
01:40AM -11.4600 -37.4870 26° Northeast 298 343 9,600 -964 Descending FlightAware
01:40AM -11.4270 -37.4700 27° Northeast 298 343 9,400 -207 Descending FlightAware
01:41AM -11.4020 -37.4580 25° Northeast 298 343 9,400  Level FlightAware
01:41AM -11.3770 -37.4450 27° Northeast 298 343 9,400  Level FlightAware
01:41AM -11.3510 -37.4320 26° Northeast 298 343 9,400  Level FlightAware
01:44AM -11.2203 -37.3030 44° Northeast  Level Estimated
01:45AM -11.1595 -37.2431 44° Northeast  Level Estimated
01:46AM -11.0986 -37.1832 44° Northeast  Level Estimated
01:47AM -11.0378 -37.1232 44° Northeast  Level Estimated
01:48AM -10.9840 -37.0703 44° Northeast  Level Estimated
01:49AM -10.9840 -37.0703 270° West  Level Estimated
01:50AM -10.9840 -37.0703 270° West  Level Estimated
01:51AM -10.9840 -37.0703 270° West  Level Estimated
01:52AM -10.9840 -37.0703 270° West  Level Estimated
01:53AM -10.9840 -37.0703 270° West  Level Estimated
01:54AM -10.9840 -37.0703 270° West  Level Estimated
01:55AM -10.9840 -37.0703 270° West  Level Estimated
01:56AM -10.9840 -37.0703 270° West  Level Estimated
01:57AM -10.9840 -37.0703 270° West  Level Estimated

Login

Don't have an account? Register now (free) for customized features, flight alerts, and more!